Time;durP1;ratioP1;P1;durP2;ratioP2;P2;SDS_P1;SDS_P2;PMS_P1;PMS_P2;Temp;Humidity;BMP_temperature;BMP_pressure;BME280_temperature;BME280_humidity;BME280_pressure;Samples;Min_cycle;Max_cycle;Signal;HPM_P1;HPM_P2
2022/03/10 00:00:47;;;;;;;22.90;17.57;;;;;;;2.79;62.02;94667.03;5077838;28;20252;-77
2022/03/10 00:03:12;;;;;;;22.80;17.30;;;;;;;2.78;62.16;94665.41;5101374;28;20173;-77
2022/03/10 00:05:38;;;;;;;21.43;17.50;;;;;;;2.82;62.55;94667.53;5096936;28;20191;-77
2022/03/10 00:08:03;;;;;;;18.73;16.60;;;;;;;2.88;61.96;94660.97;5108301;28;20196;-77
2022/03/10 00:10:29;;;;;;;21.80;16.40;;;;;;;2.82;62.53;94672.72;5096006;28;20184;-77
2022/03/10 00:12:54;;;;;;;21.07;17.30;;;;;;;2.95;62.42;94667.19;5095189;28;20185;-77
2022/03/10 00:15:25;;;;;;;22.00;17.80;;;;;;;2.83;62.15;94664.00;5067046;28;20717;-77
2022/03/10 00:17:52;;;;;;;21.02;16.40;;;;;;;2.82;62.13;94664.16;5067665;28;20194;-77
2022/03/10 00:20:18;;;;;;;23.55;17.40;;;;;;;3.04;61.86;94663.72;5049868;28;20176;-77
2022/03/10 00:22:51;;;;;;;17.67;12.60;;;;;;;2.53;61.62;94657.41;5047557;28;20175;-77
2022/03/10 00:25:17;;;;;;;18.17;15.57;;;;;;;2.81;61.62;94668.53;5050163;28;20422;-77
2022/03/10 00:27:42;;;;;;;21.90;16.00;;;;;;;2.85;61.84;94654.34;5059967;28;20473;-78
2022/03/10 00:30:09;;;;;;;19.97;15.43;;;;;;;2.94;61.98;94655.25;5051826;28;20186;-77
2022/03/10 00:32:49;;;;;;;23.75;16.83;;;;;;;2.65;62.18;94656.22;5040955;28;20190;-77
2022/03/10 00:35:17;;;;;;;22.88;15.20;;;;;;;2.49;62.80;94656.06;5054948;28;20683;-77
2022/03/10 00:37:44;;;;;;;23.75;15.48;;;;;;;2.38;63.04;94653.69;5054778;28;20168;-77
2022/03/10 00:40:10;;;;;;;15.07;11.90;;;;;;;2.41;62.04;94651.63;5029834;28;20255;-77
2022/03/10 00:42:39;;;;;;;22.10;17.30;;;;;;;2.18;62.71;94658.09;5041776;28;20194;-77
2022/03/10 00:45:06;;;;;;;23.27;15.55;;;;;;;2.33;62.69;94646.34;5048400;28;20422;-77
2022/03/10 00:47:32;;;;;;;22.23;15.68;;;;;;;2.26;62.86;94648.72;5050954;28;20222;-77
2022/03/10 00:49:58;;;;;;;17.08;14.85;;;;;;;1.99;63.80;94646.09;5052842;28;20531;-77
2022/03/10 00:52:23;;;;;;;20.57;16.57;;;;;;;1.51;65.27;94640.94;5056341;28;20186;-77
2022/03/10 00:54:49;;;;;;;21.83;15.40;;;;;;;2.09;63.29;94642.53;5035571;28;20179;-77
2022/03/10 00:57:14;;;;;;;22.27;15.33;;;;;;;2.43;62.54;94641.97;5057987;28;20199;-77
2022/03/10 00:59:40;;;;;;;17.47;14.53;;;;;;;2.38;62.61;94639.00;5047111;28;20171;-77
2022/03/10 01:02:05;;;;;;;20.67;15.60;;;;;;;2.46;62.10;94635.69;5037363;28;20179;-77
2022/03/10 01:04:31;;;;;;;23.10;15.77;;;;;;;2.07;63.01;94635.91;5037313;28;20201;-76
2022/03/10 01:06:56;;;;;;;24.00;16.03;;;;;;;2.28;62.90;94643.41;5054147;28;20198;-77
2022/03/10 01:09:21;;;;;;;19.23;15.30;;;;;;;1.90;63.89;94634.88;5053571;28;20563;-77
2022/03/10 01:11:47;;;;;;;22.10;16.13;;;;;;;1.93;63.67;94634.56;5060281;28;20172;-77
2022/03/10 01:14:12;;;;;;;20.70;15.67;;;;;;;2.21;63.51;94638.00;5050901;28;20694;-76
2022/03/10 01:16:38;;;;;;;21.73;18.20;;;;;;;2.33;63.07;94636.84;5080414;28;20190;-77
2022/03/10 01:19:04;;;;;;;23.90;16.57;;;;;;;2.57;61.67;94634.69;5065862;28;20174;-77
2022/03/10 01:21:29;;;;;;;17.33;14.87;;;;;;;2.53;61.99;94636.75;5071060;28;20182;-77
2022/03/10 01:23:55;;;;;;;22.20;17.33;;;;;;;2.44;62.05;94641.00;5070670;28;20162;-76
2022/03/10 01:26:20;;;;;;;20.00;16.60;;;;;;;2.56;61.89;94635.63;5086847;28;20268;-76
2022/03/10 01:28:46;;;;;;;19.67;14.20;;;;;;;2.51;61.88;94633.50;5081898;28;20273;-77
2022/03/10 01:31:11;;;;;;;25.20;16.87;;;;;;;2.48;62.59;94633.78;5079878;28;20299;-77
2022/03/10 01:33:37;;;;;;;19.73;17.30;;;;;;;2.66;61.74;94636.41;5070084;28;20182;-76
2022/03/10 01:36:02;;;;;;;26.83;17.13;;;;;;;2.36;62.35;94628.00;5048428;28;20182;-77
2022/03/10 01:38:28;;;;;;;19.20;16.23;;;;;;;2.65;61.87;94635.56;5052214;28;20184;-76
2022/03/10 01:40:53;;;;;;;21.27;16.47;;;;;;;2.74;61.89;94631.31;5066359;28;20205;-76
2022/03/10 01:43:19;;;;;;;18.60;15.67;;;;;;;2.46;61.47;94630.53;5071580;28;20175;-76
2022/03/10 01:45:45;;;;;;;20.10;15.63;;;;;;;2.46;62.49;94627.94;5066369;28;20178;-76
2022/03/10 01:48:10;;;;;;;23.07;16.77;;;;;;;2.50;62.19;94631.84;5079695;28;20181;-76
2022/03/10 01:50:36;;;;;;;23.57;16.77;;;;;;;2.80;61.54;94627.31;5065510;28;20174;-76
2022/03/10 01:53:02;;;;;;;21.27;15.73;;;;;;;2.84;61.38;94623.47;5081466;28;20166;-77
2022/03/10 01:55:28;;;;;;;20.37;15.20;;;;;;;2.84;61.35;94629.44;5076371;28;20178;-77
2022/03/10 01:57:53;;;;;;;19.73;15.63;;;;;;;2.19;62.53;94619.25;5071931;28;20417;-77
2022/03/10 02:00:19;;;;;;;19.37;14.87;;;;;;;2.16;62.85;94624.69;5067367;28;20815;-76
2022/03/10 02:02:45;;;;;;;18.90;15.47;;;;;;;1.88;64.01;94629.03;5079506;28;20169;-77
2022/03/10 02:05:11;;;;;;;18.03;14.60;;;;;;;2.13;62.46;94630.16;5072087;28;20422;-77
2022/03/10 02:10:23;;;;;;;18.13;13.48;;;;;;;1.90;63.31;94634.88;5063755;28;20237;-76
2022/03/10 02:12:52;;;;;;;15.30;12.83;;;;;;;1.86;63.33;94631.75;5080801;28;20632;-76
2022/03/10 02:18:06;;;;;;;20.42;14.57;;;;;;;1.86;63.09;94629.19;5071436;28;20180;-77
2022/03/10 02:20:31;;;;;;;21.88;15.38;;;;;;;2.17;62.30;94628.91;5080975;28;20173;-76
2022/03/10 02:22:57;;;;;;;17.30;13.87;;;;;;;2.21;62.74;94632.03;5079096;28;20186;-76
2022/03/10 02:25:24;;;;;;;18.80;15.00;;;;;;;2.24;62.75;94623.97;5064787;28;20444;-77
2022/03/10 02:27:55;;;;;;;21.48;16.38;;;;;;;2.33;61.89;94631.69;5079383;28;20451;-77
2022/03/10 02:30:22;;;;;;;20.13;15.47;;;;;;;2.35;61.96;94626.34;5047029;28;20171;-76
2022/03/10 02:32:48;;;;;;;20.13;15.25;;;;;;;2.46;62.02;94636.50;5095641;28;20427;-76
2022/03/10 02:35:14;;;;;;;18.00;15.43;;;;;;;2.63;61.49;94642.66;5076064;28;20177;-77
2022/03/10 02:37:40;;;;;;;21.27;15.27;;;;;;;2.63;61.52;94636.69;5085570;28;20174;-77
2022/03/10 02:40:06;;;;;;;22.73;15.20;;;;;;;2.72;61.33;94640.97;5075328;28;20411;-77
2022/03/10 02:42:32;;;;;;;21.48;16.33;;;;;;;2.71;61.30;94637.59;5072757;28;20175;-76
2022/03/10 02:44:58;;;;;;;20.23;15.33;;;;;;;2.81;61.24;94640.09;5069882;28;20229;-76
2022/03/10 02:47:24;;;;;;;20.40;15.97;;;;;;;2.66;61.31;94641.56;5076950;28;20181;-76
2022/03/10 02:49:49;;;;;;;20.07;14.80;;;;;;;2.74;61.56;94644.22;5071731;28;20409;-77
2022/03/10 02:52:15;;;;;;;24.27;17.60;;;;;;;2.82;61.58;94636.53;5075992;28;20275;-76
2022/03/10 02:54:40;;;;;;;23.83;17.67;;;;;;;2.91;61.14;94640.84;5068132;28;20175;-77
2022/03/10 02:57:06;;;;;;;20.40;15.00;;;;;;;2.82;61.00;94643.50;5070240;28;20171;-76
2022/03/10 02:59:31;;;;;;;16.57;11.70;;;;;;;2.24;59.59;94642.03;5049118;28;20258;-76
2022/03/10 03:01:58;;;;;;;14.17;11.80;;;;;;;2.25;58.63;94643.69;5077030;28;20205;-77
2022/03/10 03:04:24;;;;;;;17.55;12.10;;;;;;;2.19;59.47;94650.22;5070236;28;20175;-77
2022/03/10 03:06:50;;;;;;;11.60;9.70;;;;;;;2.36;57.34;94655.59;5047290;28;20686;-77
2022/03/10 03:09:16;;;;;;;13.43;9.20;;;;;;;2.05;56.90;94651.50;5068942;28;20221;-77
2022/03/10 03:11:41;;;;;;;14.93;9.93;;;;;;;1.90;56.61;94655.50;5053136;28;20427;-77
2022/03/10 03:14:07;;;;;;;13.13;8.90;;;;;;;2.38;55.30;94662.22;5073448;28;20174;-76
2022/03/10 03:16:33;;;;;;;13.30;9.83;;;;;;;2.27;55.36;94657.25;5070389;28;20214;-76
2022/03/10 03:18:58;;;;;;;19.30;9.90;;;;;;;1.99;56.38;94649.47;5060484;28;20206;-76
2022/03/10 03:21:24;;;;;;;14.10;10.83;;;;;;;1.86;56.62;94660.13;5070652;28;20186;-76
2022/03/10 03:23:50;;;;;;;15.50;10.57;;;;;;;1.68;57.90;94662.59;5069854;28;20175;-76
2022/03/10 03:26:16;;;;;;;14.38;11.20;;;;;;;1.27;58.28;94654.28;5078735;28;20611;-76
2022/03/10 03:28:42;;;;;;;15.90;12.20;;;;;;;1.47;58.04;94664.56;5073553;28;20182;-77
2022/03/10 03:31:09;;;;;;;12.27;9.55;;;;;;;1.71;56.87;94661.53;5066321;28;20182;-77
2022/03/10 03:33:38;;;;;;;13.32;9.70;;;;;;;1.30;55.88;94669.44;5073769;28;20186;-77
2022/03/10 03:36:05;;;;;;;11.65;9.25;;;;;;;1.14;54.37;94671.78;5083528;28;20186;-77
2022/03/10 03:38:30;;;;;;;13.20;10.23;;;;;;;1.07;54.75;94673.28;5086348;28;20220;-77
2022/03/10 03:40:56;;;;;;;12.43;9.93;;;;;;;1.04;54.92;94669.19;5082565;28;20174;-77
2022/03/10 03:43:22;;;;;;;12.67;8.70;;;;;;;1.32;54.06;94675.28;5081775;28;20417;-76
2022/03/10 03:45:47;;;;;;;12.03;9.10;;;;;;;1.44;54.03;94675.13;5081403;28;20442;-78
2022/03/10 03:48:13;;;;;;;10.73;9.13;;;;;;;1.11;54.08;94669.47;5074776;28;20198;-76
2022/03/10 03:50:38;;;;;;;13.60;9.40;;;;;;;1.30;53.94;94671.22;5080410;28;20178;-76
2022/03/10 03:53:04;;;;;;;13.23;10.00;;;;;;;1.57;53.07;94670.50;5074444;28;20196;-76
2022/03/10 03:55:29;;;;;;;11.83;8.00;;;;;;;1.20;53.75;94673.81;5079228;28;20252;-76
2022/03/10 03:57:55;;;;;;;11.33;8.50;;;;;;;1.22;53.94;94677.06;5071456;28;20636;-77
2022/03/10 04:00:20;;;;;;;11.03;6.77;;;;;;;1.33;52.23;94687.22;5077108;28;20197;-76
2022/03/10 04:02:46;;;;;;;10.60;7.43;;;;;;;1.15;53.28;94686.28;5060040;28;20174;-76
2022/03/10 04:05:12;;;;;;;13.93;7.50;;;;;;;0.87;53.63;94687.88;5079367;28;20200;-77
2022/03/10 04:07:38;;;;;;;8.10;6.38;;;;;;;1.18;52.51;94688.59;5087125;28;20197;-77
2022/03/10 04:10:07;;;;;;;11.00;7.47;;;;;;;0.96;53.11;94700.78;5074844;28;20174;-77
2022/03/10 04:12:33;;;;;;;10.73;7.60;;;;;;;1.16;52.69;94698.22;5103805;28;20185;-77
2022/03/10 04:14:59;;;;;;;9.40;6.88;;;;;;;1.40;52.21;94697.00;5078897;28;20617;-76
2022/03/10 04:17:25;;;;;;;7.53;6.80;;;;;;;1.48;52.36;94697.09;5087793;28;20178;-76
2022/03/10 04:19:50;;;;;;;8.57;7.68;;;;;;;0.95;52.98;94701.75;5051180;28;20202;-77
2022/03/10 04:22:16;;;;;;;12.33;7.70;;;;;;;1.12;53.53;94702.84;5067889;28;20187;-76
2022/03/10 04:24:41;;;;;;;9.17;6.90;;;;;;;0.78;53.89;94698.03;5076716;28;20174;-76
2022/03/10 04:27:07;;;;;;;10.07;7.13;;;;;;;0.81;54.33;94694.38;5084718;28;20225;-77
2022/03/10 04:29:32;;;;;;;12.83;9.13;;;;;;;0.94;53.75;94702.66;5059402;28;20166;-75
2022/03/10 04:31:58;;;;;;;11.23;8.27;;;;;;;1.01;54.25;94697.81;5081493;28;20246;-76
2022/03/10 04:34:23;;;;;;;9.57;6.80;;;;;;;1.25;53.44;94697.41;5049076;28;20235;-76
2022/03/10 04:36:49;;;;;;;11.03;8.27;;;;;;;1.04;53.41;94704.44;5082149;28;20224;-76
2022/03/10 04:39:14;;;;;;;7.23;6.50;;;;;;;1.06;53.67;94712.84;5064933;28;20184;-76
2022/03/10 04:41:39;;;;;;;7.87;6.60;;;;;;;1.08;53.13;94706.63;5074520;28;20198;-76
2022/03/10 04:44:05;;;;;;;9.17;7.13;;;;;;;1.36;52.54;94706.75;5061908;28;20171;-76
2022/03/10 04:46:31;;;;;;;9.90;7.13;;;;;;;1.10;52.51;94712.47;5076388;28;20197;-76
2022/03/10 04:48:56;;;;;;;10.77;7.17;;;;;;;0.93;53.63;94713.09;5073363;28;20370;-76
2022/03/10 04:51:21;;;;;;;13.57;8.53;;;;;;;0.81;53.72;94720.13;5094267;28;20556;-77
2022/03/10 04:53:47;;;;;;;12.33;8.47;;;;;;;0.73;54.76;94718.22;5065970;28;20183;-76
2022/03/10 04:56:13;;;;;;;9.27;7.17;;;;;;;0.78;54.14;94728.16;5066935;28;20287;-77
2022/03/10 04:58:38;;;;;;;9.00;7.80;;;;;;;0.66;54.77;94729.19;5070702;28;20192;-76
2022/03/10 05:01:04;;;;;;;12.97;8.37;;;;;;;0.79;54.43;94740.06;5087727;28;20162;-76
2022/03/10 05:03:32;;;;;;;9.07;7.80;;;;;;;0.55;54.59;94743.81;5072516;28;20175;-76
2022/03/10 05:05:57;;;;;;;10.35;7.63;;;;;;;0.67;54.77;94741.13;5085101;28;20608;-76
2022/03/10 05:08:23;;;;;;;12.20;7.73;;;;;;;0.56;54.82;94740.28;5079365;28;20264;-76
2022/03/10 05:10:48;;;;;;;8.40;7.27;;;;;;;0.62;54.63;94751.00;5083935;28;20182;-77
2022/03/10 05:13:14;;;;;;;7.80;6.93;;;;;;;0.89;54.54;94758.13;5058449;28;20186;-76
2022/03/10 05:15:39;;;;;;;9.33;6.00;;;;;;;0.75;54.66;94756.72;5079892;28;20218;-76
2022/03/10 05:18:05;;;;;;;8.77;7.40;;;;;;;1.29;53.01;94760.63;5086561;28;20174;-77
2022/03/10 05:20:31;;;;;;;9.00;7.37;;;;;;;1.31;52.42;94769.03;5067594;28;20174;-76
2022/03/10 05:22:58;;;;;;;6.65;6.05;;;;;;;1.10;53.48;94770.91;5089432;28;20178;-77
2022/03/10 05:25:30;;;;;;;11.15;7.85;;;;;;;1.03;53.15;94775.78;5067883;28;20289;-77
2022/03/10 05:27:56;;;;;;;7.65;6.28;;;;;;;1.18;52.72;94783.94;5064930;28;20710;-76
2022/03/10 05:30:22;;;;;;;10.20;7.90;;;;;;;1.00;53.45;94783.75;5079184;28;20169;-76
2022/03/10 05:32:47;;;;;;;11.50;7.17;;;;;;;1.27;53.51;94788.31;5072528;28;20420;-76
2022/03/10 05:35:14;;;;;;;11.87;8.83;;;;;;;1.25;52.67;94785.06;5082355;28;20177;-76
2022/03/10 05:37:40;;;;;;;7.80;6.40;;;;;;;1.31;52.11;94794.81;5071868;28;20180;-76
2022/03/10 05:40:08;;;;;;;8.38;6.72;;;;;;;1.20;53.05;94796.72;5077383;28;20252;-76
2022/03/10 05:43:09;;;;;;;10.40;8.32;;;;;;;1.26;52.82;94807.28;5081314;28;20173;-76
2022/03/10 05:45:35;;;;;;;9.60;7.82;;;;;;;1.30;52.00;94807.84;5072948;28;20245;-76
2022/03/10 05:48:01;;;;;;;9.20;7.07;;;;;;;1.60;51.51;94809.50;5072232;28;20187;-76
2022/03/10 05:50:27;;;;;;;8.23;7.03;;;;;;;1.84;50.79;94808.25;5072905;28;20858;-75
2022/03/10 05:52:53;;;;;;;10.65;7.63;;;;;;;1.50;52.60;94813.81;5071858;28;20170;-76
2022/03/10 05:55:20;;;;;;;12.48;8.13;;;;;;;1.41;52.35;94805.13;5072505;28;20174;-76
2022/03/10 05:57:46;;;;;;;13.35;8.90;;;;;;;1.16;52.87;94811.63;5085625;28;20170;-76
2022/03/10 06:00:14;;;;;;;9.63;7.15;;;;;;;1.42;52.50;94813.69;5066570;28;20224;-76
2022/03/10 06:02:40;;;;;;;10.70;8.27;;;;;;;1.32;52.75;94822.22;5065802;28;20182;-77
2022/03/10 06:05:06;;;;;;;14.93;8.07;;;;;;;1.61;51.94;94820.63;5080202;28;20196;-76
2022/03/10 06:07:32;;;;;;;5.83;4.27;;;;;;;1.62;51.48;94817.91;5079145;28;20202;-76
2022/03/10 06:09:58;;;;;;;11.20;8.45;;;;;;;1.69;51.52;94821.59;5065787;28;20413;-76
2022/03/10 06:12:26;;;;;;;14.33;9.33;;;;;;;1.91;51.23;94819.66;5085123;28;20992;-76
2022/03/10 06:14:59;;;;;;;12.85;9.73;;;;;;;2.02;50.56;94822.09;5079757;28;20276;-76
2022/03/10 06:17:26;;;;;;;15.65;9.35;;;;;;;1.88;51.04;94825.13;5061258;28;20182;-76
2022/03/10 06:19:54;;;;;;;10.93;8.73;;;;;;;1.74;50.79;94829.72;5065412;28;20641;-76
2022/03/10 06:22:21;;;;;;;9.85;7.78;;;;;;;1.79;49.73;94834.47;5065917;28;20278;-76
2022/03/10 06:24:47;;;;;;;8.05;6.68;;;;;;;1.98;48.11;94828.50;5088302;28;20180;-76
2022/03/10 06:27:13;;;;;;;5.30;4.20;;;;;;;1.65;48.70;94830.53;5069982;28;20191;-76
2022/03/10 06:29:42;;;;;;;4.97;4.57;;;;;;;1.70;47.83;94841.25;5080060;28;20174;-76
2022/03/10 06:32:08;;;;;;;6.70;4.90;;;;;;;1.90;47.72;94831.75;5072059;28;20187;-76
2022/03/10 06:34:35;;;;;;;6.97;5.97;;;;;;;1.88;47.97;94838.81;5080443;28;20184;-76
2022/03/10 06:37:01;;;;;;;9.50;6.80;;;;;;;1.59;48.11;94838.78;5072139;28;20228;-76
2022/03/10 06:39:26;;;;;;;9.40;5.97;;;;;;;1.26;48.45;94842.56;5070188;28;20593;-76
2022/03/10 06:41:52;;;;;;;8.33;6.53;;;;;;;1.47;47.26;94850.19;5072919;28;21042;-76
2022/03/10 06:44:17;;;;;;;5.67;4.60;;;;;;;1.84;46.32;94849.53;5064414;28;20170;-76
2022/03/10 06:46:43;;;;;;;6.10;5.57;;;;;;;1.73;46.96;94855.66;5064783;28;20199;-76
2022/03/10 06:49:09;;;;;;;4.77;4.37;;;;;;;1.54;45.16;94854.69;5071245;28;20213;-76
2022/03/10 06:51:34;;;;;;;2.85;2.65;;;;;;;1.46;46.04;94858.88;5066802;28;20197;-76
2022/03/10 06:54:00;;;;;;;6.70;5.20;;;;;;;0.65;46.39;94858.91;5078488;28;20635;-76
2022/03/10 06:56:25;;;;;;;6.67;4.70;;;;;;;1.01;46.90;94864.47;5066528;28;20189;-76
2022/03/10 06:58:51;;;;;;;5.53;4.63;;;;;;;1.29;47.51;94853.44;5073702;28;20185;-76
2022/03/10 07:01:17;;;;;;;6.50;5.50;;;;;;;1.28;46.62;94858.72;5081983;28;20189;-75
2022/03/10 07:03:42;;;;;;;7.70;5.10;;;;;;;1.64;46.07;94867.59;5080181;28;20170;-76
2022/03/10 07:06:08;;;;;;;5.17;4.77;;;;;;;1.65;45.66;94869.22;5067853;28;20184;-76
2022/03/10 07:08:34;;;;;;;5.10;4.60;;;;;;;1.71;44.98;94870.47;5084869;28;20177;-76
2022/03/10 07:10:59;;;;;;;8.20;5.73;;;;;;;2.17;44.64;94879.28;5069028;28;20432;-76
2022/03/10 07:13:25;;;;;;;3.43;3.13;;;;;;;1.95;44.54;94880.38;5067220;28;20174;-76
2022/03/10 07:15:51;;;;;;;10.80;6.20;;;;;;;2.41;44.62;94871.13;5073829;28;20282;-77
2022/03/10 07:18:16;;;;;;;7.30;6.20;;;;;;;2.70;43.30;94876.22;5079930;28;20162;-77
2022/03/10 07:20:41;;;;;;;7.00;5.10;;;;;;;2.78;42.62;94880.69;5052011;28;20179;-77
2022/03/10 07:23:07;;;;;;;5.93;5.23;;;;;;;2.70;42.37;94880.56;5061419;28;20190;-76
2022/03/10 07:25:33;;;;;;;7.37;5.33;;;;;;;2.72;42.61;94874.31;5067963;28;20179;-76
2022/03/10 07:27:58;;;;;;;6.17;5.67;;;;;;;2.53;43.76;94880.31;5057555;28;20195;-75
2022/03/10 07:30:23;;;;;;;7.80;5.07;;;;;;;2.78;42.52;94885.84;5067883;28;20253;-76
2022/03/10 07:32:49;;;;;;;6.13;5.17;;;;;;;3.26;41.75;94884.88;5050717;28;20170;-76
2022/03/10 07:35:15;;;;;;;4.40;3.53;;;;;;;2.70;40.36;94878.00;5065807;28;20181;-76
2022/03/10 07:37:40;;;;;;;4.77;3.27;;;;;;;2.46;40.56;94887.00;5072230;28;20170;-76
2022/03/10 07:40:06;;;;;;;4.60;4.10;;;;;;;2.73;40.35;94886.28;5071923;28;20182;-76
2022/03/10 07:42:32;;;;;;;4.63;4.22;;;;;;;3.22;39.16;94886.09;5068528;28;20186;-76
2022/03/10 07:44:57;;;;;;;3.47;3.17;;;;;;;2.77;39.83;94889.41;5083742;28;20179;-76
2022/03/10 07:47:22;;;;;;;4.23;3.30;;;;;;;2.75;39.14;94891.28;5069568;28;20208;-75
2022/03/10 07:49:48;;;;;;;3.77;3.47;;;;;;;2.34;38.86;94901.03;5060078;28;20198;-76
2022/03/10 07:52:14;;;;;;;4.30;3.90;;;;;;;2.50;39.46;94895.28;5054870;28;20189;-76
2022/03/10 07:54:39;;;;;;;3.87;3.50;;;;;;;2.96;38.64;94900.59;5076874;28;20653;-75
2022/03/10 07:57:05;;;;;;;4.57;3.90;;;;;;;3.15;38.26;94891.97;5068553;28;20171;-75
2022/03/10 07:59:30;;;;;;;3.77;3.47;;;;;;;3.03;37.37;94901.69;5077632;28;20252;-76
2022/03/10 08:01:56;;;;;;;4.03;2.97;;;;;;;3.50;36.52;94901.63;5074140;28;20193;-76
2022/03/10 08:04:22;;;;;;;9.00;3.10;;;;;;;4.07;35.92;94897.03;5088080;28;20225;-76
2022/03/10 08:06:47;;;;;;;9.97;4.30;;;;;;;3.94;35.74;94900.94;5087769;28;20254;-75
2022/03/10 08:09:13;;;;;;;3.90;3.50;;;;;;;3.92;36.28;94901.09;5079434;28;20433;-75
2022/03/10 08:11:39;;;;;;;2.57;2.40;;;;;;;4.01;35.07;94897.63;5081418;28;20182;-76
2022/03/10 08:14:06;;;;;;;4.13;3.75;;;;;;;3.39;36.86;94902.63;5080694;28;20177;-76
2022/03/10 08:16:34;;;;;;;3.28;2.97;;;;;;;3.13;35.70;94903.28;5049971;28;20222;-76
2022/03/10 08:19:00;;;;;;;3.30;3.00;;;;;;;3.49;35.86;94907.72;5067396;28;20171;-76
2022/03/10 08:21:26;;;;;;;10.17;3.60;;;;;;;3.64;36.50;94906.31;5067331;28;20167;-76
2022/03/10 08:23:53;;;;;;;7.25;4.60;;;;;;;4.10;37.28;94904.50;5055272;28;20169;-76
2022/03/10 08:26:18;;;;;;;7.03;3.03;;;;;;;3.98;37.27;94913.44;5074674;28;20192;-76
2022/03/10 08:28:45;;;;;;;3.60;3.30;;;;;;;3.72;38.02;94906.41;5057533;28;20469;-75
2022/03/10 08:31:11;;;;;;;3.30;2.67;;;;;;;4.86;34.56;94908.34;5064653;28;20181;-76
2022/03/10 08:33:37;;;;;;;6.80;3.90;;;;;;;4.93;35.00;94910.31;5057988;28;20424;-76
2022/03/10 08:36:05;;;;;;;3.23;3.03;;;;;;;5.05;33.73;94911.69;5073148;28;20175;-76
2022/03/10 08:38:31;;;;;;;4.10;3.70;;;;;;;3.70;35.86;94913.50;5083061;28;20408;-75
2022/03/10 08:40:57;;;;;;;7.70;3.37;;;;;;;4.19;36.11;94910.59;5065518;28;20496;-75
2022/03/10 08:43:28;;;;;;;3.60;3.30;;;;;;;4.50;35.54;94912.78;5055166;28;20433;-76
2022/03/10 08:45:54;;;;;;;3.60;2.80;;;;;;;4.62;35.75;94916.75;5056837;28;20280;-76
2022/03/10 08:48:19;;;;;;;11.68;4.43;;;;;;;3.83;37.33;94918.31;5075163;28;20455;-76
2022/03/10 08:50:45;;;;;;;4.30;4.00;;;;;;;4.27;36.47;94915.03;5067751;28;20225;-76
2022/03/10 08:53:10;;;;;;;5.37;4.33;;;;;;;3.86;37.46;94915.44;5072635;28;20155;-76
2022/03/10 08:55:36;;;;;;;5.23;3.90;;;;;;;4.11;37.00;94918.25;5081748;28;20186;-75
2022/03/10 08:58:02;;;;;;;4.57;3.50;;;;;;;3.41;37.63;94918.81;5071857;28;20178;-76
2022/03/10 09:00:27;;;;;;;4.77;4.37;;;;;;;3.63;38.84;94920.19;5067125;28;20202;-76
2022/03/10 09:02:53;;;;;;;4.70;3.83;;;;;;;4.07;38.16;94922.91;5094932;28;20268;-76
2022/03/10 09:05:18;;;;;;;6.10;3.73;;;;;;;4.04;37.46;94920.63;5066872;28;20174;-75
2022/03/10 09:07:44;;;;;;;5.73;4.53;;;;;;;4.07;37.79;94922.91;5066786;28;20197;-76
2022/03/10 09:10:10;;;;;;;3.47;3.17;;;;;;;4.54;36.83;94913.28;5082027;28;20181;-75
2022/03/10 09:12:37;;;;;;;5.30;3.80;;;;;;;4.28;37.47;94914.03;5079389;28;20182;-76
2022/03/10 09:15:04;;;;;;;5.70;4.57;;;;;;;5.08;36.42;94917.38;5081417;28;20469;-76
2022/03/10 09:17:29;;;;;;;6.70;3.70;;;;;;;4.95;35.37;94910.97;5067022;28;20421;-76
2022/03/10 09:19:56;;;;;;;2.47;2.27;;;;;;;5.20;34.54;94915.34;5067022;28;20445;-76
2022/03/10 09:22:25;;;;;;;3.40;3.10;;;;;;;5.16;34.44;94903.66;5062727;28;20447;-76
2022/03/10 09:24:54;;;;;;;4.90;3.63;;;;;;;4.23;35.43;94908.47;5074289;28;20181;-75
2022/03/10 09:27:19;;;;;;;9.23;3.80;;;;;;;4.53;35.31;94903.88;5085667;28;20506;-76
2022/03/10 09:29:45;;;;;;;7.10;2.90;;;;;;;3.93;36.14;94907.91;5081736;28;20427;-76
2022/03/10 09:32:11;;;;;;;3.90;2.63;;;;;;;4.10;34.30;94911.47;5073270;28;20538;-77
2022/03/10 09:34:36;;;;;;;3.83;3.50;;;;;;;3.33;36.52;94904.00;5080885;28;20193;-76
2022/03/10 09:37:02;;;;;;;2.30;2.20;;;;;;;3.50;35.58;94899.03;5055085;28;20888;-76
2022/03/10 09:39:27;;;;;;;4.50;2.80;;;;;;;4.19;33.76;94902.81;5072161;28;20652;-76
2022/03/10 09:41:56;;;;;;;3.70;3.40;;;;;;;4.75;33.79;94905.19;5086483;28;20302;-76
2022/03/10 09:44:21;;;;;;;4.20;3.77;;;;;;;5.53;33.26;94905.09;5054245;28;20174;-76
2022/03/10 09:46:50;;;;;;;3.30;3.00;;;;;;;5.10;32.76;94909.44;5085958;28;20482;-76
2022/03/10 09:49:19;;;;;;;3.57;3.20;;;;;;;4.34;32.99;94910.84;5050037;28;20182;-76
2022/03/10 09:51:45;;;;;;;2.87;2.67;;;;;;;4.98;32.16;94911.47;5066716;28;20425;-76
2022/03/10 09:54:11;;;;;;;3.00;2.70;;;;;;;5.68;31.21;94897.53;5066107;28;20457;-76
2022/03/10 09:56:39;;;;;;;2.70;2.50;;;;;;;5.84;31.35;94907.13;5048449;28;20416;-76
2022/03/10 09:59:07;;;;;;;3.63;2.23;;;;;;;6.50;30.72;94909.88;5076538;28;20185;-76
2022/03/10 10:01:32;;;;;;;3.83;3.50;;;;;;;6.66;30.17;94917.66;5092015;28;20423;-76
2022/03/10 10:03:58;;;;;;;4.23;3.83;;;;;;;6.00;29.85;94906.41;5056378;28;20496;-77
2022/03/10 10:06:23;;;;;;;2.80;2.60;;;;;;;6.78;29.01;94911.16;5065999;28;20206;-76
2022/03/10 10:09:19;;;;;;;4.17;2.47;;;;;;;6.42;29.02;94908.06;5067129;28;20182;-76
2022/03/10 10:11:48;;;;;;;5.00;2.60;;;;;;;6.10;30.77;94916.66;5066815;28;20285;-76
2022/03/10 10:14:37;;;;;;;3.33;2.53;;;;;;;5.53;30.41;94919.88;5058007;28;20913;-76
2022/03/10 10:17:03;;;;;;;4.20;2.40;;;;;;;6.14;29.88;94910.97;5056301;28;20427;-76
2022/03/10 10:19:32;;;;;;;2.97;2.67;;;;;;;6.37;28.60;94918.94;5070713;28;20440;-76
2022/03/10 10:22:18;;;;;;;2.60;2.40;;;;;;;5.90;29.75;94913.47;5075803;28;20505;-77
2022/03/10 10:25:02;;;;;;;5.30;3.40;;;;;;;5.81;30.84;94915.25;5048274;28;20427;-77
2022/03/10 10:27:32;;;;;;;3.70;2.93;;;;;;;5.97;30.99;94917.91;5049600;28;20467;-76
2022/03/10 10:30:01;;;;;;;6.40;3.80;;;;;;;4.72;32.77;94919.25;5077640;28;20463;-76
2022/03/10 10:32:52;;;;;;;6.73;4.40;;;;;;;4.78;33.48;94923.84;5050975;28;20831;-76
2022/03/10 10:35:22;;;;;;;4.90;3.20;;;;;;;4.88;32.19;94929.72;5074221;28;20424;-77
2022/03/10 10:37:51;;;;;;;3.40;3.13;;;;;;;3.97;34.53;94929.13;5074258;28;20417;-76
2022/03/10 10:40:23;;;;;;;3.73;3.43;;;;;;;4.96;33.27;94928.16;5038806;28;20430;-76
2022/03/10 10:42:48;;;;;;;2.60;2.43;;;;;;;5.23;33.69;94922.00;5059465;28;20420;-76
2022/03/10 10:45:26;;;;;;;3.80;3.00;;;;;;;5.01;32.92;94928.53;5057625;28;20433;-76
2022/03/10 10:48:06;;;;;;;4.30;3.43;;;;;;;4.67;33.07;94937.03;5069686;28;20197;-77
2022/03/10 10:50:34;;;;;;;10.40;2.90;;;;;;;5.28;31.80;94925.75;5071955;28;20424;-76
2022/03/10 10:52:59;;;;;;;5.93;3.70;;;;;;;5.19;32.17;94926.66;5082106;28;20426;-76
2022/03/10 10:55:32;;;;;;;5.53;3.73;;;;;;;5.24;31.89;94911.47;5061621;28;20555;-77
2022/03/10 10:58:05;;;;;;;3.00;2.70;;;;;;;5.07;31.78;94912.34;5079961;28;20649;-76
2022/03/10 11:00:40;;;;;;;3.50;3.20;;;;;;;5.01;32.37;94911.19;5064115;28;21507;-76
2022/03/10 11:03:25;;;;;;;5.53;4.00;;;;;;;6.28;31.07;94909.53;5048743;28;20447;-76
2022/03/10 11:05:52;;;;;;;3.73;2.77;;;;;;;6.65;30.51;94909.03;5073112;28;20443;-76
2022/03/10 11:08:20;;;;;;;5.17;2.93;;;;;;;5.88;30.75;94911.06;5075158;28;20562;-75
2022/03/10 11:10:46;;;;;;;3.00;2.80;;;;;;;6.44;29.38;94906.13;5087271;28;20439;-76
2022/03/10 11:13:11;;;;;;;4.90;3.47;;;;;;;6.62;29.38;94906.78;5089316;28;20408;-76
2022/03/10 11:15:38;;;;;;;3.93;3.23;;;;;;;5.37;31.25;94895.47;5069050;28;20468;-76
2022/03/10 11:18:04;;;;;;;3.20;2.97;;;;;;;5.10;31.06;94901.66;5078767;28;20237;-75
2022/03/10 11:20:31;;;;;;;1.83;1.47;;;;;;;4.98;31.48;94906.28;5072132;28;20420;-76
2022/03/10 11:23:18;;;;;;;3.00;2.70;;;;;;;4.96;32.25;94904.81;5079699;28;20938;-76
2022/03/10 11:26:00;;;;;;;3.23;3.03;;;;;;;5.00;32.57;94908.72;5072066;28;20428;-76
2022/03/10 11:28:30;;;;;;;4.80;2.83;;;;;;;5.12;33.21;94904.91;5074919;28;20487;-75
2022/03/10 11:31:04;;;;;;;2.43;2.30;;;;;;;4.02;33.83;94909.63;5061840;28;20443;-76
2022/03/10 11:33:35;;;;;;;10.50;3.70;;;;;;;4.24;34.39;94912.72;5065536;28;20434;-75
2022/03/10 11:36:23;;;;;;;4.77;3.47;;;;;;;4.84;32.92;94918.03;5087488;28;20468;-76
2022/03/10 11:39:02;;;;;;;5.30;3.60;;;;;;;5.06;33.15;94915.91;5064046;28;20448;-75
2022/03/10 11:41:40;;;;;;;3.70;3.10;;;;;;;4.33;34.01;94917.00;5068442;28;20822;-75